createdAt,value
2022-09-07T00:01:00.705Z,95570.94
2022-09-07T00:03:27.963Z,95565.91
2022-09-07T00:05:54.851Z,95561.34
2022-09-07T00:08:24.211Z,95561.63
2022-09-07T00:10:53.040Z,95559.66
2022-09-07T00:13:19.929Z,95552.84
2022-09-07T00:15:46.718Z,95561.34
2022-09-07T00:18:13.727Z,95564.94
2022-09-07T00:20:40.501Z,95567.16
2022-09-07T00:23:07.399Z,95561.66
2022-09-07T00:25:39.206Z,95564.16
2022-09-07T00:28:08.552Z,95560.03
2022-09-07T00:30:41.864Z,95558.66
2022-09-07T00:33:10.100Z,95549.06
2022-09-07T00:35:41.346Z,95553.47
2022-09-07T00:38:08.484Z,95552.78
2022-09-07T00:40:35.708Z,95553.59
2022-09-07T00:43:02.568Z,95560.34
2022-09-07T00:45:29.659Z,95553.75
2022-09-07T00:48:17.759Z,95568.06
2022-09-07T00:50:49.254Z,95564.94
2022-09-07T00:53:30.008Z,95553.47
2022-09-07T00:55:59.161Z,95565.44
2022-09-07T00:58:27.460Z,95554.41
2022-09-07T01:00:55.796Z,95554.91
2022-09-07T01:03:28.915Z,95557.06
2022-09-07T01:06:25.566Z,95546.88
2022-09-07T01:08:55.283Z,95549.06
2022-09-07T01:11:23.231Z,95542.13
2022-09-07T01:13:51.771Z,95547.47
2022-09-07T01:16:37.000Z,95545.63
2022-09-07T01:19:42.543Z,95548.94
2022-09-07T01:22:38.190Z,95542.50
2022-09-07T01:25:13.092Z,95548.31
2022-09-07T01:28:04.536Z,95544.09
2022-09-07T01:30:36.220Z,95538.56
2022-09-07T01:33:18.580Z,95542.81
2022-09-07T01:36:09.677Z,95540.16
2022-09-07T01:38:53.185Z,95527.38
2022-09-07T01:41:20.035Z,95537.44
2022-09-07T01:43:55.639Z,95539.31
2022-09-07T01:46:33.834Z,95543.09
2022-09-07T01:49:11.951Z,95542.31
2022-09-07T01:51:44.162Z,95542.16
2022-09-07T01:54:33.278Z,95535.44
2022-09-07T01:57:14.540Z,95542.03
2022-09-07T01:59:53.549Z,95536.34
2022-09-07T02:02:48.803Z,95531.47
2022-09-07T02:05:25.316Z,95532.59
2022-09-07T02:08:03.190Z,95534.03
2022-09-07T02:10:40.325Z,95527.41
2022-09-07T02:13:39.114Z,95528.69
2022-09-07T02:16:20.520Z,95524.56
2022-09-07T02:18:51.336Z,95514.78
2022-09-07T02:21:30.938Z,95523.47
2022-09-07T02:24:04.731Z,95505.41
2022-09-07T02:26:34.651Z,95519.84
2022-09-07T02:29:01.436Z,95528.00
2022-09-07T02:31:28.712Z,95527.72
2022-09-07T02:33:55.536Z,95523.66
2022-09-07T02:36:26.503Z,95521.09
2022-09-07T02:38:53.547Z,95512.31
2022-09-07T02:41:30.657Z,95512.31
2022-09-07T02:43:58.244Z,95518.75
2022-09-07T02:46:41.327Z,95526.09
2022-09-07T02:49:34.051Z,95518.75
2022-09-07T02:52:21.476Z,95520.44
2022-09-07T02:55:07.728Z,95528.00
2022-09-07T02:57:47.268Z,95532.72
2022-09-07T03:00:19.333Z,95530.81
2022-09-07T03:02:59.102Z,95537.41
2022-09-07T03:05:44.309Z,95536.78
2022-09-07T03:08:23.469Z,95539.59
2022-09-07T03:10:51.707Z,95515.81
2022-09-07T03:13:27.729Z,95545.47
2022-09-07T03:15:56.349Z,95535.78
2022-09-07T03:18:27.845Z,95538.22
2022-09-07T03:20:55.344Z,95537.97
2022-09-07T03:23:22.550Z,95533.53
2022-09-07T03:25:49.421Z,95518.16
2022-09-07T03:28:16.351Z,95537.88
2022-09-07T03:30:44.276Z,95536.13
2022-09-07T03:33:11.496Z,95536.47
2022-09-07T03:35:38.312Z,95549.53
2022-09-07T03:38:05.080Z,95541.28
2022-09-07T03:40:31.913Z,95552.84
2022-09-07T03:42:58.599Z,95548.47
2022-09-07T03:45:25.552Z,95543.25
2022-09-07T03:47:52.427Z,95548.31
2022-09-07T03:50:19.317Z,95540.97
2022-09-07T03:52:46.117Z,95548.44
2022-09-07T03:55:13.260Z,95543.09
2022-09-07T03:57:40.475Z,95552.56
2022-09-07T04:00:08.169Z,95560.81
2022-09-07T04:02:40.960Z,95554.13
2022-09-07T04:05:08.536Z,95560.66
2022-09-07T04:07:35.227Z,95556.13
2022-09-07T04:10:04.177Z,95553.63
2022-09-07T04:12:30.954Z,95551.59
2022-09-07T04:14:57.665Z,95554.75
2022-09-07T04:17:24.409Z,95560.56
2022-09-07T04:19:52.372Z,95564.28
2022-09-07T04:22:19.217Z,95560.59
2022-09-07T04:24:46.032Z,95564.16
2022-09-07T04:27:12.957Z,95563.22
2022-09-07T04:29:39.916Z,95573.03
2022-09-07T04:32:06.651Z,95566.63
2022-09-07T04:34:33.739Z,95569.47
2022-09-07T04:37:00.510Z,95572.44
2022-09-07T04:39:27.391Z,95569.38
2022-09-07T04:41:54.946Z,95573.97
2022-09-07T04:44:21.800Z,95565.47
2022-09-07T04:46:48.497Z,95563.56
2022-09-07T04:49:15.707Z,95563.44
2022-09-07T04:51:44.332Z,95564.59
2022-09-07T04:54:11.506Z,95564.13
2022-09-07T04:56:38.379Z,95571.38
2022-09-07T04:59:05.418Z,95558.06
2022-09-07T05:01:32.236Z,95574.78
2022-09-07T05:04:01.320Z,95580.31
2022-09-07T05:06:28.821Z,95580.41
2022-09-07T05:08:56.602Z,95579.94
2022-09-07T05:11:29.041Z,95587.22
2022-09-07T05:14:02.087Z,95584.25
2022-09-07T05:16:30.646Z,95581.09
2022-09-07T05:19:02.144Z,95581.44
2022-09-07T05:21:31.847Z,95580.13
2022-09-07T05:24:00.155Z,95584.66
2022-09-07T05:26:29.895Z,95558.00
2022-09-07T05:31:44.917Z,95580.44
2022-09-07T05:36:59.330Z,95576.66
2022-09-07T05:39:26.825Z,95585.09
2022-09-07T05:41:54.022Z,95570.47
2022-09-07T05:47:07.999Z,95578.75
2022-09-07T05:49:34.806Z,95579.97
2022-09-07T05:52:01.850Z,95575.22
2022-09-07T05:54:28.672Z,95577.50
2022-09-07T05:56:55.651Z,95571.41
2022-09-07T05:59:22.505Z,95566.25
2022-09-07T06:01:49.415Z,95578.47
2022-09-07T06:04:16.750Z,95570.91
2022-09-07T06:06:59.130Z,95577.28
2022-09-07T06:09:30.813Z,95577.56
2022-09-07T06:11:57.642Z,95584.97
2022-09-07T06:14:25.006Z,95576.97
2022-09-07T06:16:52.102Z,95574.56
2022-09-07T06:19:18.850Z,95561.03
2022-09-07T06:21:45.640Z,95575.91
2022-09-07T06:24:12.433Z,95570.75
2022-09-07T06:26:39.382Z,95570.59
2022-09-07T06:29:06.130Z,95577.69
2022-09-07T06:31:33.223Z,95567.00
2022-09-07T06:34:00.491Z,95574.88
2022-09-07T06:36:28.503Z,95581.47
2022-09-07T06:38:59.026Z,95586.19
2022-09-07T06:44:20.304Z,95581.25
2022-09-07T06:49:29.139Z,95575.34
2022-09-07T06:51:55.984Z,95580.31
2022-09-07T06:57:09.972Z,95564.00
2022-09-07T06:59:37.746Z,95578.88
2022-09-07T07:02:06.441Z,95580.53
2022-09-07T07:04:37.669Z,95590.22
2022-09-07T07:07:09.399Z,95590.75
2022-09-07T07:09:36.274Z,95588.31
2022-09-07T07:12:03.388Z,95582.66
2022-09-07T07:14:33.780Z,95585.66
2022-09-07T07:17:01.972Z,95592.63
2022-09-07T07:19:28.880Z,95585.28
2022-09-07T07:22:35.616Z,95575.75
2022-09-07T07:24:42.679Z,95579.19
2022-09-07T07:27:09.428Z,95589.22
2022-09-07T07:29:36.749Z,95585.19
2022-09-07T07:32:04.372Z,95549.28
2022-09-07T07:34:32.199Z,95575.53
2022-09-07T07:36:59.049Z,95586.41
2022-09-07T07:42:13.518Z,95580.38
2022-09-07T07:44:40.228Z,95583.44
2022-09-07T07:47:07.050Z,95572.84
2022-09-07T07:49:34.785Z,95585.22
2022-09-07T07:54:48.831Z,95579.09
2022-09-07T07:57:18.932Z,95583.69
2022-09-07T07:59:45.941Z,95586.47
2022-09-07T08:02:17.178Z,95590.91
2022-09-07T08:04:44.539Z,95589.84
2022-09-07T08:07:14.433Z,95582.47
2022-09-07T08:09:46.070Z,95583.06
2022-09-07T08:12:16.678Z,95578.59
2022-09-07T08:14:43.666Z,95582.59
2022-09-07T08:17:13.079Z,95580.72
2022-09-07T08:19:40.635Z,95577.06
2022-09-07T08:22:08.835Z,95574.16
2022-09-07T08:24:35.797Z,95572.25
2022-09-07T08:27:03.159Z,95579.94
2022-09-07T08:29:33.499Z,95566.97
2022-09-07T08:32:03.593Z,95570.56
2022-09-07T08:34:30.300Z,95571.78
2022-09-07T08:36:57.161Z,95566.41
2022-09-07T08:39:23.887Z,95560.59
2022-09-07T08:42:21.400Z,95561.88
2022-09-07T08:44:57.768Z,95556.03
2022-09-07T08:47:30.834Z,95553.75
2022-09-07T08:50:29.398Z,95557.34
2022-09-07T08:53:01.956Z,95559.16
2022-09-07T08:55:35.908Z,95548.31
2022-09-07T08:58:45.140Z,95546.84
2022-09-07T09:04:17.826Z,95537.31
2022-09-07T09:07:09.888Z,95535.22
2022-09-07T09:10:14.316Z,95536.44
2022-09-07T09:12:59.311Z,95519.00
2022-09-07T09:15:41.210Z,95528.94
2022-09-07T09:18:26.992Z,95526.44
2022-09-07T09:20:56.101Z,95521.06
2022-09-07T09:23:30.706Z,95508.09
2022-09-07T09:26:03.152Z,95502.72
2022-09-07T09:28:32.321Z,95504.19
2022-09-07T09:30:59.400Z,95503.72
2022-09-07T09:33:28.968Z,95497.16
2022-09-07T09:35:58.960Z,95493.47
2022-09-07T09:38:40.579Z,95495.84
2022-09-07T09:41:27.621Z,95482.41
2022-09-07T09:43:57.159Z,95491.66
2022-09-07T09:46:34.114Z,95489.88
2022-09-07T09:49:17.965Z,95493.75
2022-09-07T09:54:44.655Z,95483.94
2022-09-07T09:57:38.634Z,95480.78
2022-09-07T10:00:10.504Z,95480.72
2022-09-07T10:05:30.101Z,95472.31
2022-09-07T10:07:57.085Z,95473.25
2022-09-07T10:10:26.236Z,95470.59
2022-09-07T10:12:55.217Z,95466.09
2022-09-07T10:15:41.083Z,95463.72
2022-09-07T10:18:21.362Z,95457.81
2022-09-07T10:20:49.316Z,95462.91
2022-09-07T10:23:24.104Z,95443.00
2022-09-07T10:25:51.288Z,95444.22
2022-09-07T10:28:21.296Z,95441.78
2022-09-07T10:31:15.328Z,95447.09
2022-09-07T10:33:43.192Z,95440.25
2022-09-07T10:36:46.713Z,95443.34
2022-09-07T10:39:27.928Z,95437.66
2022-09-07T10:42:07.301Z,95424.88
2022-09-07T10:44:46.244Z,95424.88
2022-09-07T10:47:19.719Z,95426.00
2022-09-07T10:52:52.498Z,95425.75
2022-09-07T10:55:33.165Z,95416.81
2022-09-07T10:58:14.437Z,95417.63
2022-09-07T11:00:58.227Z,95417.25
2022-09-07T11:03:58.009Z,95416.78
2022-09-07T11:06:33.512Z,95409.31
2022-09-07T11:09:31.334Z,95410.06
2022-09-07T11:12:07.103Z,95394.28
2022-09-07T11:14:44.865Z,95407.38
2022-09-07T11:17:20.743Z,95400.06
2022-09-07T11:19:56.749Z,95408.50
2022-09-07T11:22:49.681Z,95399.78
2022-09-07T11:25:29.833Z,95395.34
2022-09-07T11:28:04.329Z,95386.75
2022-09-07T11:30:35.980Z,95389.91
2022-09-07T11:33:26.695Z,95382.38
2022-09-07T11:36:02.264Z,95373.53
2022-09-07T11:38:33.550Z,95372.78
2022-09-07T11:41:29.119Z,95382.19
2022-09-07T11:44:24.782Z,95377.94
2022-09-07T11:46:55.823Z,95375.91
2022-09-07T11:49:26.242Z,95375.28
2022-09-07T11:52:08.919Z,95377.94
2022-09-07T11:54:57.093Z,95367.22
2022-09-07T11:57:39.061Z,95366.59
2022-09-07T12:00:11.418Z,95359.19
2022-09-07T12:02:59.972Z,95358.13
2022-09-07T12:05:36.275Z,95354.22
2022-09-07T12:08:24.919Z,95350.00
2022-09-07T12:11:10.261Z,95354.44
2022-09-07T12:13:45.870Z,95342.19
2022-09-07T12:16:39.888Z,95337.00
2022-09-07T12:19:23.566Z,95347.97
2022-09-07T12:21:53.353Z,95337.94
2022-09-07T12:24:49.328Z,95336.31
2022-09-07T12:27:22.297Z,95345.53
2022-09-07T12:29:52.723Z,95339.00
2022-09-07T12:32:55.850Z,95340.25
2022-09-07T12:35:26.669Z,95331.69
2022-09-07T12:38:00.591Z,95329.38
2022-09-07T12:40:30.605Z,95327.09
2022-09-07T12:43:12.661Z,95319.69
2022-09-07T12:45:39.555Z,95318.53
2022-09-07T12:48:15.320Z,95323.56
2022-09-07T12:54:39.193Z,95322.31
2022-09-07T12:57:32.180Z,95315.44
2022-09-07T13:00:35.787Z,95302.78
2022-09-07T13:06:05.644Z,95297.13
2022-09-07T13:09:23.646Z,95302.78
2022-09-07T13:11:50.521Z,95299.00
2022-09-07T13:14:23.195Z,95304.88
2022-09-07T13:17:28.881Z,95304.28
2022-09-07T13:19:55.777Z,95300.09
2022-09-07T13:22:35.439Z,95292.47
2022-09-07T13:25:23.657Z,95298.28
2022-09-07T13:27:55.726Z,95295.00
2022-09-07T13:30:31.654Z,95296.22
2022-09-07T13:33:29.620Z,95291.28
2022-09-07T13:36:05.431Z,95298.38
2022-09-07T13:38:36.490Z,95293.03
2022-09-07T13:41:15.623Z,95287.72
2022-09-07T13:43:48.576Z,95283.69
2022-09-07T13:46:27.522Z,95288.50
2022-09-07T13:49:06.555Z,95290.84
2022-09-07T13:52:06.438Z,95292.81
2022-09-07T13:54:39.511Z,95285.44
2022-09-07T13:57:28.038Z,95279.72
2022-09-07T13:59:56.273Z,95288.66
2022-09-07T14:02:33.520Z,95273.31
2022-09-07T14:05:01.881Z,95271.09
2022-09-07T14:07:30.943Z,95271.88
2022-09-07T14:10:13.296Z,95271.81
2022-09-07T14:12:49.041Z,95267.59
2022-09-07T14:15:18.943Z,95277.41
2022-09-07T14:17:47.382Z,95269.63
2022-09-07T14:20:16.032Z,95270.13
2022-09-07T14:22:43.950Z,95270.00
2022-09-07T14:25:22.201Z,95265.22
2022-09-07T14:27:50.068Z,95265.69
2022-09-07T14:30:23.234Z,95274.41
2022-09-07T14:32:56.503Z,95270.34
2022-09-07T14:35:26.847Z,95270.41
2022-09-07T14:37:54.913Z,95269.13
2022-09-07T14:40:26.050Z,95266.94
2022-09-07T14:42:55.228Z,95267.22
2022-09-07T14:45:21.852Z,95268.06
2022-09-07T14:47:52.280Z,95269.75
2022-09-07T14:50:26.369Z,95257.41
2022-09-07T14:55:45.276Z,95259.00
2022-09-07T14:58:14.768Z,95264.31
2022-09-07T15:00:47.151Z,95257.84
2022-09-07T15:03:46.850Z,95257.13
2022-09-07T15:09:36.818Z,95252.66
2022-09-07T15:12:15.028Z,95253.88
2022-09-07T15:14:42.272Z,95270.13
2022-09-07T15:17:48.311Z,95266.28
2022-09-07T15:20:35.012Z,95267.38
2022-09-07T15:23:13.072Z,95273.78
2022-09-07T15:25:45.319Z,95262.34
2022-09-07T15:34:11.354Z,95278.53
2022-09-07T15:36:40.962Z,95282.03
2022-09-07T15:39:25.378Z,95279.75
2022-09-07T15:41:53.061Z,95281.28
2022-09-07T15:44:24.911Z,95287.91
2022-09-07T15:49:47.425Z,95292.53
2022-09-07T15:52:16.453Z,95287.38
2022-09-07T15:54:43.495Z,95275.34
2022-09-07T15:59:58.585Z,95286.69
2022-09-07T16:05:12.929Z,95290.47
2022-09-07T16:10:31.081Z,95299.50
2022-09-07T16:13:02.828Z,95301.69
2022-09-07T16:15:31.798Z,95295.72
2022-09-07T16:17:58.652Z,95298.41
2022-09-07T16:20:31.921Z,95278.22
2022-09-07T16:23:16.189Z,95292.47
2022-09-07T16:25:59.499Z,95290.53
2022-09-07T16:28:28.141Z,95297.53
2022-09-07T16:30:55.972Z,95291.91
2022-09-07T16:33:29.156Z,95300.25
2022-09-07T16:36:06.723Z,95298.19
2022-09-07T16:38:49.833Z,95301.03
2022-09-07T16:41:21.580Z,95300.41
2022-09-07T16:43:49.471Z,95296.38
2022-09-07T16:46:18.746Z,95290.00
2022-09-07T16:48:46.238Z,95286.84
2022-09-07T16:51:16.244Z,95288.44
2022-09-07T16:53:43.705Z,95287.50
2022-09-07T16:56:16.797Z,95291.47
2022-09-07T16:58:50.114Z,95293.34
2022-09-07T17:01:19.955Z,95260.13
2022-09-07T17:03:49.392Z,95285.69
2022-09-07T17:06:17.720Z,95305.72
2022-09-07T17:08:45.195Z,95309.81
2022-09-07T17:11:15.794Z,95314.22
2022-09-07T17:13:43.324Z,95321.28
2022-09-07T17:16:13.997Z,95323.88
2022-09-07T17:21:33.611Z,95327.44
2022-09-07T17:24:01.687Z,95326.38
2022-09-07T17:26:30.697Z,95324.69
2022-09-07T17:29:00.199Z,95317.59
2022-09-07T17:34:19.939Z,95312.97
2022-09-07T17:36:47.261Z,95324.19
2022-09-07T17:39:16.741Z,95329.88
2022-09-07T17:41:44.318Z,95335.28
2022-09-07T17:44:11.575Z,95333.91
2022-09-07T17:46:38.261Z,95334.06
2022-09-07T17:49:08.084Z,95330.63
2022-09-07T17:51:36.199Z,95345.06
2022-09-07T17:54:12.721Z,95348.44
2022-09-07T17:56:40.955Z,95354.56
2022-09-07T18:01:55.999Z,95369.84
2022-09-07T18:04:23.216Z,95364.94
2022-09-07T18:06:50.383Z,95365.66
2022-09-07T18:09:17.504Z,95374.31
2022-09-07T18:11:46.365Z,95365.25
2022-09-07T18:14:15.153Z,95374.94
2022-09-07T18:16:44.320Z,95374.84
2022-09-07T18:19:11.816Z,95390.22
2022-09-07T18:21:42.180Z,95391.97
2022-09-07T18:24:19.095Z,95393.28
2022-09-07T18:26:51.769Z,95381.63
2022-09-07T18:29:30.090Z,95400.19
2022-09-07T18:32:01.423Z,95405.38
2022-09-07T18:34:31.959Z,95401.41
2022-09-07T18:36:59.843Z,95395.47
2022-09-07T18:39:27.606Z,95395.34
2022-09-07T18:41:55.284Z,95404.53
2022-09-07T18:47:16.106Z,95397.13
2022-09-07T18:49:48.103Z,95396.31
2022-09-07T18:55:01.989Z,95396.69
2022-09-07T18:57:28.733Z,95396.09
2022-09-07T18:59:55.684Z,95387.84
2022-09-07T19:02:22.663Z,95389.16
2022-09-07T19:07:36.813Z,95394.63
2022-09-07T19:10:06.853Z,95405.75
2022-09-07T19:12:34.007Z,95394.19
2022-09-07T19:15:00.827Z,95395.28
2022-09-07T19:17:27.627Z,95401.69
2022-09-07T19:19:54.578Z,95396.97
2022-09-07T19:22:22.730Z,95398.63
2022-09-07T19:24:49.419Z,95396.25
2022-09-07T19:27:16.141Z,95386.63
2022-09-07T19:29:43.022Z,95389.81
2022-09-07T19:32:12.980Z,95393.97
2022-09-07T19:34:42.091Z,95398.22
2022-09-07T19:37:11.044Z,95400.78
2022-09-07T19:39:38.325Z,95405.13
2022-09-07T19:42:05.827Z,95404.59
2022-09-07T19:44:33.211Z,95401.16
2022-09-07T19:47:00.836Z,95405.63
2022-09-07T19:49:28.583Z,95402.38
2022-09-07T19:51:55.511Z,95399.06
2022-09-07T19:54:22.549Z,95403.09
2022-09-07T19:56:49.447Z,95406.72
2022-09-07T19:59:19.272Z,95408.81
2022-09-07T20:01:48.294Z,95401.22
2022-09-07T20:04:20.556Z,95406.81
2022-09-07T20:06:50.270Z,95412.31
2022-09-07T20:09:18.822Z,95399.50
2022-09-07T20:11:47.623Z,95400.84
2022-09-07T20:14:16.095Z,95402.09
2022-09-07T20:16:43.590Z,95381.00
2022-09-07T20:19:17.616Z,95403.78
2022-09-07T20:21:44.461Z,95397.50
2022-09-07T20:24:14.733Z,95405.81
2022-09-07T20:26:41.792Z,95404.47
2022-09-07T20:29:26.578Z,95396.66
2022-09-07T20:31:55.370Z,95410.38
2022-09-07T20:34:22.259Z,95410.47
2022-09-07T20:36:50.233Z,95401.25
2022-09-07T20:39:17.052Z,95406.47
2022-09-07T20:41:44.482Z,95402.88
2022-09-07T20:44:12.766Z,95410.16
2022-09-07T20:46:39.890Z,95412.03
2022-09-07T20:49:07.421Z,95409.25
2022-09-07T20:51:34.363Z,95412.06
2022-09-07T20:54:01.310Z,95418.03
2022-09-07T20:56:28.848Z,95415.63
2022-09-07T20:59:01.015Z,95429.09
2022-09-07T21:01:30.830Z,95432.22
2022-09-07T21:03:59.410Z,95438.16
2022-09-07T21:06:27.960Z,95427.69
2022-09-07T21:08:56.112Z,95435.25
2022-09-07T21:11:27.553Z,95446.03
2022-09-07T21:13:59.426Z,95439.97
2022-09-07T21:16:26.977Z,95441.28
2022-09-07T21:18:55.855Z,95442.28
2022-09-07T21:21:24.019Z,95437.69
2022-09-07T21:23:59.443Z,95439.84
2022-09-07T21:26:28.103Z,95440.31
2022-09-07T21:29:03.631Z,95429.69
2022-09-07T21:31:32.177Z,95422.34
2022-09-07T21:34:00.861Z,95432.72
2022-09-07T21:36:28.255Z,95429.47
2022-09-07T21:38:55.896Z,95417.06
2022-09-07T21:41:24.320Z,95437.53
2022-09-07T21:43:58.096Z,95437.06
2022-09-07T21:46:26.059Z,95439.53
2022-09-07T21:48:54.545Z,95426.50
2022-09-07T21:51:23.444Z,95427.13
2022-09-07T21:53:58.337Z,95439.28
2022-09-07T21:56:26.869Z,95432.94
2022-09-07T21:58:58.811Z,95424.13
2022-09-07T22:01:27.508Z,95430.59
2022-09-07T22:04:07.053Z,95433.94
2022-09-07T22:06:34.490Z,95431.69
2022-09-07T22:09:02.023Z,95428.44
2022-09-07T22:11:29.575Z,95417.84
2022-09-07T22:13:58.322Z,95415.63
2022-09-07T22:16:25.198Z,95425.09
2022-09-07T22:18:52.054Z,95421.50
2022-09-07T22:21:27.094Z,95420.69
2022-09-07T22:24:02.296Z,95420.88
2022-09-07T22:26:31.391Z,95422.88
2022-09-07T22:28:58.672Z,95421.41
2022-09-07T22:31:31.194Z,95423.09
2022-09-07T22:33:59.924Z,95413.78
2022-09-07T22:36:38.713Z,95409.53
2022-09-07T22:39:09.035Z,95405.09
2022-09-07T22:41:38.212Z,95402.97
2022-09-07T22:44:07.153Z,95401.84
2022-09-07T22:46:37.175Z,95400.69
2022-09-07T22:49:05.536Z,95398.28
2022-09-07T22:51:32.723Z,95401.19
2022-09-07T22:54:00.456Z,95398.66
2022-09-07T22:56:31.295Z,95404.13
2022-09-07T22:59:00.458Z,95409.06
2022-09-07T23:01:29.587Z,95408.81
2022-09-07T23:03:57.090Z,95403.72
2022-09-07T23:06:30.065Z,95415.72
2022-09-07T23:08:59.004Z,95405.06
2022-09-07T23:11:26.707Z,95410.50
2022-09-07T23:13:55.619Z,95414.38
2022-09-07T23:16:23.139Z,95415.94
2022-09-07T23:18:50.384Z,95405.06
2022-09-07T23:21:17.919Z,95413.78
2022-09-07T23:23:52.335Z,95415.75
2022-09-07T23:26:20.988Z,95412.66
2022-09-07T23:28:58.663Z,95408.06
2022-09-07T23:31:26.905Z,95395.09
2022-09-07T23:33:53.771Z,95405.22
2022-09-07T23:36:20.551Z,95404.56
2022-09-07T23:38:48.759Z,95404.78
2022-09-07T23:41:18.947Z,95407.22
2022-09-07T23:43:46.139Z,95408.66
2022-09-07T23:46:13.640Z,95410.44
2022-09-07T23:48:42.842Z,95404.75
2022-09-07T23:51:09.839Z,95397.25
2022-09-07T23:53:36.972Z,95395.63
2022-09-07T23:56:04.332Z,95392.59
2022-09-07T23:58:31.094Z,95397.31
